This is the latest recevied weather packets stored in our database for station/object NK7E. If no packets are shown the sender has not sent any weather packets the latest 10 day(s).
| Time | Temp. | Humidity | Pressure | Rain* | Wind** | Luminosity | Snow |
|---|---|---|---|---|---|---|---|
| 1777932917 | 25° C | 22% | 1013.1 hPa | 0 mm | - | 168 W/m² | - |
| 1777932317 | 25° C | 21% | 1013.3 hPa | 0 mm | - | 184 W/m² | - |
| 1777931717 | 25.56° C | 21% | 1013.2 hPa | 0 mm | - | 261 W/m² | - |
| 1777931117 | 25.56° C | 21% | 1013.1 hPa | 0 mm | - | 384 W/m² | - |
| 1777930517 | 25.56° C | 23% | 1012.8 hPa | 0 mm | - | 449 W/m² | - |
| 1777929917 | 25.56° C | 22% | 1012.9 hPa | 0 mm | - | 435 W/m² | - |
| 1777929317 | 26.11° C | 23% | 1013 hPa | 0 mm | - | 458 W/m² | - |
| 1777928717 | 26.11° C | 19% | 1013.2 hPa | 0 mm | - | 275 W/m² | - |
| 1777928117 | 26.11° C | 19% | 1013.2 hPa | 0 mm | - | 293 W/m² | - |
| 1777927517 | 26.11° C | 19% | 1013.2 hPa | 0 mm | - | 325 W/m² | - |
| 1777926917 | 26.67° C | 19% | 1013.2 hPa | 0 mm | - | 340 W/m² | - |
| 1777926317 | 26.67° C | 19% | 1013.4 hPa | 0 mm | - | 376 W/m² | - |
| 1777925717 | 26.67° C | 20% | 1013.5 hPa | 0 mm | - | 497 W/m² | - |
| 1777925117 | 26.67° C | 20% | 1013.5 hPa | 0 mm | - | 376 W/m² | - |
| 1777923917 | 26.11° C | 23% | 1013.3 hPa | 0 mm | - | 546 W/m² | - |
| 1777923317 | 26.11° C | 23% | 1013.3 hPa | 0 mm | - | 503 W/m² | - |
| 1777922717 | 26.11° C | 24% | 1013.3 hPa | 0 mm | - | 436 W/m² | - |
| 1777922117 | 25.56° C | 25% | 1013.5 hPa | 0 mm | - | 591 W/m² | - |
| 1777921517 | 25.56° C | 24% | 1013.3 hPa | 0 mm | - | 618 W/m² | - |
| 1777920917 | 25.56° C | 25% | 1013.6 hPa | 0 mm | - | 646 W/m² | - |
| 1777920317 | 25.56° C | 26% | 1013.9 hPa | 0 mm | - | 515 W/m² | - |
| 1777919717 | 25.56° C | 25% | 1014 hPa | 0 mm | - | 459 W/m² | - |
| 1777919117 | 25° C | 26% | 1014 hPa | 0 mm | - | 521 W/m² | - |
| 1777918517 | 25° C | 26% | 1014.3 hPa | 0 mm | - | 552 W/m² | - |
| 1777917917 | 24.44° C | 27% | 1014.2 hPa | 0 mm | - | 597 W/m² | - |
* Rain latest hour (hover to see other rain measurements)
** Current wind speed in m/s (hover to see current wind gust speed)